sensor_id;sensor_type;location;lat;lon;timestamp;P1;durP1;ratioP1;P2;durP2;ratioP2
22646;SDS011;11490;42.726;23.268;2023-09-19T00:01:05;4.20;;;2.55;;
22646;SDS011;11490;42.726;23.268;2023-09-19T00:03:36;6.30;;;3.40;;
22646;SDS011;11490;42.726;23.268;2023-09-19T00:06:02;4.95;;;3.22;;
22646;SDS011;11490;42.726;23.268;2023-09-19T00:08:29;3.55;;;2.80;;
22646;SDS011;11490;42.726;23.268;2023-09-19T00:10:55;4.10;;;2.95;;
22646;SDS011;11490;42.726;23.268;2023-09-19T00:13:21;4.63;;;3.10;;
22646;SDS011;11490;42.726;23.268;2023-09-19T00:15:47;5.78;;;3.65;;
22646;SDS011;11490;42.726;23.268;2023-09-19T00:18:13;6.55;;;3.67;;
22646;SDS011;11490;42.726;23.268;2023-09-19T00:20:40;4.82;;;3.65;;
22646;SDS011;11490;42.726;23.268;2023-09-19T00:23:07;4.35;;;2.90;;
22646;SDS011;11490;42.726;23.268;2023-09-19T00:25:36;8.73;;;3.65;;
22646;SDS011;11490;42.726;23.268;2023-09-19T00:28:02;3.83;;;2.78;;
22646;SDS011;11490;42.726;23.268;2023-09-19T00:30:28;4.97;;;3.08;;
22646;SDS011;11490;42.726;23.268;2023-09-19T00:32:54;4.53;;;3.20;;
22646;SDS011;11490;42.726;23.268;2023-09-19T00:35:20;4.47;;;2.88;;
22646;SDS011;11490;42.726;23.268;2023-09-19T00:37:49;7.28;;;3.35;;
22646;SDS011;11490;42.726;23.268;2023-09-19T00:40:15;6.47;;;3.47;;
22646;SDS011;11490;42.726;23.268;2023-09-19T00:42:42;4.60;;;3.28;;
22646;SDS011;11490;42.726;23.268;2023-09-19T00:45:11;4.80;;;2.95;;
22646;SDS011;11490;42.726;23.268;2023-09-19T00:47:38;6.50;;;3.05;;
22646;SDS011;11490;42.726;23.268;2023-09-19T00:50:05;5.63;;;3.05;;
22646;SDS011;11490;42.726;23.268;2023-09-19T00:52:34;7.90;;;3.60;;
22646;SDS011;11490;42.726;23.268;2023-09-19T00:55:02;3.85;;;2.50;;
22646;SDS011;11490;42.726;23.268;2023-09-19T00:57:29;5.93;;;3.38;;
22646;SDS011;11490;42.726;23.268;2023-09-19T00:59:58;6.45;;;2.67;;
22646;SDS011;11490;42.726;23.268;2023-09-19T01:02:24;3.97;;;2.72;;
22646;SDS011;11490;42.726;23.268;2023-09-19T01:04:53;4.45;;;2.78;;
22646;SDS011;11490;42.726;23.268;2023-09-19T01:07:19;5.00;;;3.25;;
22646;SDS011;11490;42.726;23.268;2023-09-19T01:09:47;4.13;;;2.78;;
22646;SDS011;11490;42.726;23.268;2023-09-19T01:12:12;4.10;;;3.03;;
22646;SDS011;11490;42.726;23.268;2023-09-19T01:14:54;6.22;;;3.58;;
22646;SDS011;11490;42.726;23.268;2023-09-19T01:17:26;4.50;;;3.05;;
22646;SDS011;11490;42.726;23.268;2023-09-19T01:20:09;3.67;;;2.67;;
22646;SDS011;11490;42.726;23.268;2023-09-19T01:28:52;6.47;;;3.80;;
22646;SDS011;11490;42.726;23.268;2023-09-19T01:31:28;8.52;;;3.40;;
22646;SDS011;11490;42.726;23.268;2023-09-19T01:34:00;4.30;;;2.95;;
22646;SDS011;11490;42.726;23.268;2023-09-19T01:36:32;4.68;;;2.88;;
22646;SDS011;11490;42.726;23.268;2023-09-19T01:39:01;5.93;;;3.58;;
22646;SDS011;11490;42.726;23.268;2023-09-19T01:44:40;9.07;;;3.47;;
22646;SDS011;11490;42.726;23.268;2023-09-19T01:47:31;4.85;;;3.70;;
22646;SDS011;11490;42.726;23.268;2023-09-19T01:52:47;4.63;;;3.17;;
22646;SDS011;11490;42.726;23.268;2023-09-19T01:55:16;4.20;;;3.40;;
22646;SDS011;11490;42.726;23.268;2023-09-19T01:58:17;5.88;;;3.55;;
22646;SDS011;11490;42.726;23.268;2023-09-19T02:00:37;6.53;;;3.58;;
22646;SDS011;11490;42.726;23.268;2023-09-19T02:03:06;6.72;;;2.88;;
22646;SDS011;11490;42.726;23.268;2023-09-19T02:05:33;7.93;;;3.55;;
22646;SDS011;11490;42.726;23.268;2023-09-19T02:07:59;7.57;;;3.88;;
22646;SDS011;11490;42.726;23.268;2023-09-19T02:10:25;6.43;;;3.97;;
22646;SDS011;11490;42.726;23.268;2023-09-19T02:12:51;4.03;;;2.97;;
22646;SDS011;11490;42.726;23.268;2023-09-19T02:15:16;10.43;;;3.58;;
22646;SDS011;11490;42.726;23.268;2023-09-19T02:17:45;4.05;;;3.15;;
22646;SDS011;11490;42.726;23.268;2023-09-19T02:20:11;4.55;;;3.15;;
22646;SDS011;11490;42.726;23.268;2023-09-19T02:22:43;4.05;;;3.05;;
22646;SDS011;11490;42.726;23.268;2023-09-19T02:25:09;4.50;;;3.28;;
22646;SDS011;11490;42.726;23.268;2023-09-19T02:27:35;6.30;;;4.13;;
22646;SDS011;11490;42.726;23.268;2023-09-19T02:30:01;5.22;;;3.45;;
22646;SDS011;11490;42.726;23.268;2023-09-19T02:32:29;4.20;;;2.85;;
22646;SDS011;11490;42.726;23.268;2023-09-19T02:34:56;4.45;;;3.03;;
22646;SDS011;11490;42.726;23.268;2023-09-19T02:37:24;4.38;;;3.42;;
22646;SDS011;11490;42.726;23.268;2023-09-19T02:39:50;5.45;;;3.60;;
22646;SDS011;11490;42.726;23.268;2023-09-19T02:42:15;5.30;;;3.60;;
22646;SDS011;11490;42.726;23.268;2023-09-19T02:44:41;3.65;;;2.85;;
22646;SDS011;11490;42.726;23.268;2023-09-19T02:47:06;5.03;;;4.00;;
22646;SDS011;11490;42.726;23.268;2023-09-19T02:49:31;7.05;;;4.18;;
22646;SDS011;11490;42.726;23.268;2023-09-19T02:51:57;5.65;;;4.35;;
22646;SDS011;11490;42.726;23.268;2023-09-19T02:54:24;4.82;;;3.67;;
22646;SDS011;11490;42.726;23.268;2023-09-19T02:56:49;4.90;;;3.10;;
22646;SDS011;11490;42.726;23.268;2023-09-19T02:59:15;5.93;;;3.55;;
22646;SDS011;11490;42.726;23.268;2023-09-19T03:01:43;9.50;;;3.70;;
22646;SDS011;11490;42.726;23.268;2023-09-19T03:04:08;7.45;;;3.47;;
22646;SDS011;11490;42.726;23.268;2023-09-19T03:06:36;6.82;;;3.97;;
22646;SDS011;11490;42.726;23.268;2023-09-19T03:09:03;6.78;;;3.72;;
22646;SDS011;11490;42.726;23.268;2023-09-19T03:11:31;6.93;;;4.18;;
22646;SDS011;11490;42.726;23.268;2023-09-19T03:13:56;6.88;;;4.28;;
22646;SDS011;11490;42.726;23.268;2023-09-19T03:16:23;6.82;;;4.15;;
22646;SDS011;11490;42.726;23.268;2023-09-19T03:18:48;6.80;;;3.97;;
22646;SDS011;11490;42.726;23.268;2023-09-19T03:21:14;6.20;;;4.07;;
22646;SDS011;11490;42.726;23.268;2023-09-19T03:23:40;5.10;;;3.72;;
22646;SDS011;11490;42.726;23.268;2023-09-19T03:26:06;7.43;;;4.00;;
22646;SDS011;11490;42.726;23.268;2023-09-19T03:28:33;5.63;;;4.13;;
22646;SDS011;11490;42.726;23.268;2023-09-19T03:31:02;10.77;;;4.50;;
22646;SDS011;11490;42.726;23.268;2023-09-19T03:33:29;5.53;;;3.70;;
22646;SDS011;11490;42.726;23.268;2023-09-19T03:35:56;6.10;;;4.32;;
22646;SDS011;11490;42.726;23.268;2023-09-19T03:38:24;7.57;;;4.38;;
22646;SDS011;11490;42.726;23.268;2023-09-19T03:40:50;7.15;;;4.75;;
22646;SDS011;11490;42.726;23.268;2023-09-19T03:43:15;5.85;;;4.40;;
22646;SDS011;11490;42.726;23.268;2023-09-19T03:45:40;5.88;;;4.15;;
22646;SDS011;11490;42.726;23.268;2023-09-19T03:48:09;8.55;;;5.15;;
22646;SDS011;11490;42.726;23.268;2023-09-19T03:50:35;7.88;;;4.20;;
22646;SDS011;11490;42.726;23.268;2023-09-19T03:53:00;5.45;;;3.90;;
22646;SDS011;11490;42.726;23.268;2023-09-19T03:55:26;6.35;;;4.00;;
22646;SDS011;11490;42.726;23.268;2023-09-19T03:57:52;8.13;;;4.72;;
22646;SDS011;11490;42.726;23.268;2023-09-19T04:00:18;12.77;;;5.15;;
22646;SDS011;11490;42.726;23.268;2023-09-19T04:02:46;5.95;;;3.85;;
22646;SDS011;11490;42.726;23.268;2023-09-19T04:05:11;9.10;;;4.82;;
22646;SDS011;11490;42.726;23.268;2023-09-19T04:07:37;11.90;;;7.07;;
22646;SDS011;11490;42.726;23.268;2023-09-19T04:10:02;9.73;;;6.30;;
22646;SDS011;11490;42.726;23.268;2023-09-19T04:12:28;8.18;;;5.72;;
22646;SDS011;11490;42.726;23.268;2023-09-19T04:14:53;7.55;;;5.18;;
22646;SDS011;11490;42.726;23.268;2023-09-19T04:17:19;9.82;;;6.68;;
22646;SDS011;11490;42.726;23.268;2023-09-19T04:19:44;10.88;;;5.07;;
22646;SDS011;11490;42.726;23.268;2023-09-19T04:22:10;9.48;;;5.63;;
22646;SDS011;11490;42.726;23.268;2023-09-19T04:24:37;9.40;;;5.53;;
22646;SDS011;11490;42.726;23.268;2023-09-19T04:27:03;8.60;;;5.00;;
22646;SDS011;11490;42.726;23.268;2023-09-19T04:29:29;8.57;;;5.00;;
22646;SDS011;11490;42.726;23.268;2023-09-19T04:31:55;7.57;;;5.60;;
22646;SDS011;11490;42.726;23.268;2023-09-19T04:34:22;15.13;;;5.38;;
22646;SDS011;11490;42.726;23.268;2023-09-19T04:36:49;8.68;;;5.85;;
22646;SDS011;11490;42.726;23.268;2023-09-19T04:39:14;8.18;;;4.75;;
22646;SDS011;11490;42.726;23.268;2023-09-19T04:41:40;9.20;;;5.07;;
22646;SDS011;11490;42.726;23.268;2023-09-19T04:44:06;6.38;;;4.38;;
22646;SDS011;11490;42.726;23.268;2023-09-19T04:46:32;8.13;;;5.55;;
22646;SDS011;11490;42.726;23.268;2023-09-19T04:48:58;8.00;;;5.43;;
22646;SDS011;11490;42.726;23.268;2023-09-19T04:51:24;9.48;;;4.68;;
22646;SDS011;11490;42.726;23.268;2023-09-19T04:53:50;9.90;;;6.68;;
22646;SDS011;11490;42.726;23.268;2023-09-19T04:56:16;20.30;;;12.07;;
22646;SDS011;11490;42.726;23.268;2023-09-19T04:58:41;13.63;;;9.15;;
22646;SDS011;11490;42.726;23.268;2023-09-19T05:01:13;11.60;;;7.45;;
22646;SDS011;11490;42.726;23.268;2023-09-19T05:03:41;21.77;;;7.95;;
22646;SDS011;11490;42.726;23.268;2023-09-19T05:06:10;9.25;;;5.60;;
22646;SDS011;11490;42.726;23.268;2023-09-19T05:08:38;9.93;;;4.53;;
22646;SDS011;11490;42.726;23.268;2023-09-19T05:11:03;12.88;;;5.07;;
22646;SDS011;11490;42.726;23.268;2023-09-19T05:13:29;8.15;;;5.65;;
22646;SDS011;11490;42.726;23.268;2023-09-19T05:15:59;10.23;;;5.97;;
22646;SDS011;11490;42.726;23.268;2023-09-19T05:18:27;8.50;;;5.53;;
22646;SDS011;11490;42.726;23.268;2023-09-19T05:20:53;14.02;;;5.82;;
22646;SDS011;11490;42.726;23.268;2023-09-19T05:23:19;7.93;;;4.95;;
22646;SDS011;11490;42.726;23.268;2023-09-19T05:25:46;7.30;;;5.18;;
22646;SDS011;11490;42.726;23.268;2023-09-19T05:28:11;9.50;;;4.68;;
22646;SDS011;11490;42.726;23.268;2023-09-19T05:30:40;7.40;;;5.15;;
22646;SDS011;11490;42.726;23.268;2023-09-19T05:33:06;10.02;;;4.93;;
22646;SDS011;11490;42.726;23.268;2023-09-19T05:35:35;6.97;;;4.30;;
22646;SDS011;11490;42.726;23.268;2023-09-19T05:38:06;6.43;;;4.13;;
22646;SDS011;11490;42.726;23.268;2023-09-19T05:40:34;6.88;;;5.47;;
22646;SDS011;11490;42.726;23.268;2023-09-19T05:43:00;15.82;;;8.35;;
22646;SDS011;11490;42.726;23.268;2023-09-19T05:45:27;5.70;;;4.15;;
22646;SDS011;11490;42.726;23.268;2023-09-19T05:47:53;5.43;;;3.45;;
22646;SDS011;11490;42.726;23.268;2023-09-19T05:50:46;8.20;;;5.03;;
22646;SDS011;11490;42.726;23.268;2023-09-19T05:53:13;7.60;;;5.35;;
22646;SDS011;11490;42.726;23.268;2023-09-19T05:55:39;7.32;;;4.20;;
22646;SDS011;11490;42.726;23.268;2023-09-19T05:58:05;7.50;;;4.15;;
22646;SDS011;11490;42.726;23.268;2023-09-19T06:00:30;7.05;;;4.80;;
22646;SDS011;11490;42.726;23.268;2023-09-19T06:02:57;7.60;;;4.95;;
22646;SDS011;11490;42.726;23.268;2023-09-19T06:05:24;7.43;;;5.35;;
22646;SDS011;11490;42.726;23.268;2023-09-19T06:07:52;6.35;;;4.43;;
22646;SDS011;11490;42.726;23.268;2023-09-19T06:10:17;7.13;;;4.70;;
22646;SDS011;11490;42.726;23.268;2023-09-19T06:12:43;10.00;;;4.68;;
22646;SDS011;11490;42.726;23.268;2023-09-19T06:15:11;6.63;;;4.15;;
22646;SDS011;11490;42.726;23.268;2023-09-19T06:17:47;18.17;;;4.55;;
22646;SDS011;11490;42.726;23.268;2023-09-19T06:20:13;8.18;;;4.35;;
22646;SDS011;11490;42.726;23.268;2023-09-19T06:22:42;7.43;;;3.35;;
22646;SDS011;11490;42.726;23.268;2023-09-19T06:25:09;9.98;;;4.72;;
22646;SDS011;11490;42.726;23.268;2023-09-19T06:27:36;6.22;;;3.25;;
22646;SDS011;11490;42.726;23.268;2023-09-19T06:30:05;4.30;;;2.90;;
22646;SDS011;11490;42.726;23.268;2023-09-19T06:32:31;5.25;;;3.38;;
22646;SDS011;11490;42.726;23.268;2023-09-19T06:34:57;5.60;;;3.67;;
22646;SDS011;11490;42.726;23.268;2023-09-19T06:37:26;4.45;;;3.05;;
22646;SDS011;11490;42.726;23.268;2023-09-19T06:40:02;11.80;;;3.33;;
22646;SDS011;11490;42.726;23.268;2023-09-19T06:42:28;6.65;;;3.20;;
22646;SDS011;11490;42.726;23.268;2023-09-19T06:44:53;5.43;;;3.15;;
22646;SDS011;11490;42.726;23.268;2023-09-19T06:47:19;4.82;;;3.45;;
22646;SDS011;11490;42.726;23.268;2023-09-19T06:49:45;4.35;;;3.10;;
22646;SDS011;11490;42.726;23.268;2023-09-19T06:52:11;14.52;;;4.15;;
22646;SDS011;11490;42.726;23.268;2023-09-19T06:54:36;5.90;;;3.53;;
22646;SDS011;11490;42.726;23.268;2023-09-19T06:57:02;7.78;;;3.05;;
22646;SDS011;11490;42.726;23.268;2023-09-19T06:59:28;8.68;;;3.17;;
22646;SDS011;11490;42.726;23.268;2023-09-19T07:01:54;4.47;;;2.95;;
22646;SDS011;11490;42.726;23.268;2023-09-19T07:04:20;11.52;;;2.97;;
22646;SDS011;11490;42.726;23.268;2023-09-19T07:06:51;5.45;;;3.38;;
22646;SDS011;11490;42.726;23.268;2023-09-19T07:09:17;5.38;;;3.35;;
22646;SDS011;11490;42.726;23.268;2023-09-19T07:11:44;5.68;;;3.10;;
22646;SDS011;11490;42.726;23.268;2023-09-19T07:14:10;7.07;;;4.05;;
22646;SDS011;11490;42.726;23.268;2023-09-19T07:16:37;8.27;;;3.60;;
22646;SDS011;11490;42.726;23.268;2023-09-19T07:19:04;6.35;;;3.00;;
22646;SDS011;11490;42.726;23.268;2023-09-19T07:21:29;4.95;;;2.80;;
22646;SDS011;11490;42.726;23.268;2023-09-19T07:23:55;5.93;;;3.13;;
22646;SDS011;11490;42.726;23.268;2023-09-19T07:26:20;5.72;;;3.58;;
22646;SDS011;11490;42.726;23.268;2023-09-19T07:28:45;5.82;;;2.97;;
22646;SDS011;11490;42.726;23.268;2023-09-19T07:31:11;7.22;;;3.03;;
22646;SDS011;11490;42.726;23.268;2023-09-19T07:33:38;4.82;;;3.33;;
22646;SDS011;11490;42.726;23.268;2023-09-19T07:36:03;7.63;;;3.75;;
22646;SDS011;11490;42.726;23.268;2023-09-19T07:38:29;7.70;;;4.03;;
22646;SDS011;11490;42.726;23.268;2023-09-19T07:40:59;12.38;;;4.88;;
22646;SDS011;11490;42.726;23.268;2023-09-19T07:43:25;4.80;;;2.42;;
22646;SDS011;11490;42.726;23.268;2023-09-19T07:45:51;5.07;;;3.22;;
22646;SDS011;11490;42.726;23.268;2023-09-19T07:48:17;14.07;;;6.07;;
22646;SDS011;11490;42.726;23.268;2023-09-19T07:50:42;11.57;;;3.47;;
22646;SDS011;11490;42.726;23.268;2023-09-19T07:53:10;16.52;;;6.80;;
22646;SDS011;11490;42.726;23.268;2023-09-19T07:55:38;5.80;;;3.75;;
22646;SDS011;11490;42.726;23.268;2023-09-19T07:58:06;6.88;;;3.40;;
22646;SDS011;11490;42.726;23.268;2023-09-19T08:00:32;4.00;;;2.95;;
22646;SDS011;11490;42.726;23.268;2023-09-19T08:02:59;5.72;;;2.92;;
22646;SDS011;11490;42.726;23.268;2023-09-19T08:05:25;4.88;;;3.35;;
22646;SDS011;11490;42.726;23.268;2023-09-19T08:07:51;7.63;;;4.72;;
22646;SDS011;11490;42.726;23.268;2023-09-19T08:10:17;8.15;;;3.58;;
22646;SDS011;11490;42.726;23.268;2023-09-19T08:12:44;9.25;;;4.78;;
22646;SDS011;11490;42.726;23.268;2023-09-19T08:15:14;5.65;;;3.92;;
22646;SDS011;11490;42.726;23.268;2023-09-19T08:17:44;8.85;;;5.00;;
22646;SDS011;11490;42.726;23.268;2023-09-19T08:20:10;11.80;;;4.68;;
22646;SDS011;11490;42.726;23.268;2023-09-19T08:22:50;5.28;;;2.83;;
22646;SDS011;11490;42.726;23.268;2023-09-19T08:25:20;6.32;;;2.88;;
22646;SDS011;11490;42.726;23.268;2023-09-19T08:27:48;5.57;;;3.55;;
22646;SDS011;11490;42.726;23.268;2023-09-19T08:30:18;4.68;;;3.53;;
22646;SDS011;11490;42.726;23.268;2023-09-19T08:32:49;8.05;;;3.63;;
22646;SDS011;11490;42.726;23.268;2023-09-19T08:35:15;10.90;;;3.45;;
22646;SDS011;11490;42.726;23.268;2023-09-19T08:37:40;5.93;;;3.00;;
22646;SDS011;11490;42.726;23.268;2023-09-19T08:40:07;6.72;;;4.00;;
22646;SDS011;11490;42.726;23.268;2023-09-19T08:42:55;12.95;;;4.15;;
22646;SDS011;11490;42.726;23.268;2023-09-19T08:45:23;8.45;;;3.22;;
22646;SDS011;11490;42.726;23.268;2023-09-19T08:53:40;5.57;;;2.97;;
22646;SDS011;11490;42.726;23.268;2023-09-19T08:56:25;11.52;;;3.78;;
22646;SDS011;11490;42.726;23.268;2023-09-19T09:01:49;4.70;;;3.58;;
22646;SDS011;11490;42.726;23.268;2023-09-19T09:04:18;5.88;;;3.00;;
22646;SDS011;11490;42.726;23.268;2023-09-19T09:06:45;5.45;;;2.60;;
22646;SDS011;11490;42.726;23.268;2023-09-19T09:09:14;6.80;;;3.47;;
22646;SDS011;11490;42.726;23.268;2023-09-19T09:11:40;6.38;;;3.40;;
22646;SDS011;11490;42.726;23.268;2023-09-19T09:14:06;5.20;;;3.17;;
22646;SDS011;11490;42.726;23.268;2023-09-19T09:16:36;7.32;;;3.45;;
22646;SDS011;11490;42.726;23.268;2023-09-19T09:19:04;5.47;;;3.60;;
22646;SDS011;11490;42.726;23.268;2023-09-19T09:21:30;5.43;;;3.15;;
22646;SDS011;11490;42.726;23.268;2023-09-19T09:24:07;5.55;;;3.55;;
22646;SDS011;11490;42.726;23.268;2023-09-19T09:26:53;6.70;;;3.60;;
22646;SDS011;11490;42.726;23.268;2023-09-19T09:29:38;7.15;;;4.60;;
22646;SDS011;11490;42.726;23.268;2023-09-19T09:34:45;5.60;;;3.83;;
22646;SDS011;11490;42.726;23.268;2023-09-19T09:37:14;7.30;;;3.40;;
22646;SDS011;11490;42.726;23.268;2023-09-19T09:39:40;5.63;;;3.72;;
22646;SDS011;11490;42.726;23.268;2023-09-19T09:42:34;15.63;;;10.45;;
22646;SDS011;11490;42.726;23.268;2023-09-19T09:45:23;6.82;;;3.75;;
22646;SDS011;11490;42.726;23.268;2023-09-19T09:47:58;4.70;;;3.60;;
22646;SDS011;11490;42.726;23.268;2023-09-19T09:50:34;7.85;;;4.55;;
22646;SDS011;11490;42.726;23.268;2023-09-19T09:53:21;8.88;;;3.28;;
22646;SDS011;11490;42.726;23.268;2023-09-19T09:58:51;5.18;;;2.90;;
22646;SDS011;11490;42.726;23.268;2023-09-19T10:01:24;6.47;;;3.72;;
22646;SDS011;11490;42.726;23.268;2023-09-19T10:04:15;6.03;;;3.28;;
22646;SDS011;11490;42.726;23.268;2023-09-19T10:07:03;6.40;;;2.92;;
22646;SDS011;11490;42.726;23.268;2023-09-19T10:09:45;5.70;;;3.70;;
22646;SDS011;11490;42.726;23.268;2023-09-19T10:12:15;8.57;;;3.95;;
22646;SDS011;11490;42.726;23.268;2023-09-19T10:14:43;4.35;;;3.00;;
22646;SDS011;11490;42.726;23.268;2023-09-19T10:17:12;6.22;;;3.58;;
22646;SDS011;11490;42.726;23.268;2023-09-19T10:20:00;10.40;;;3.58;;
22646;SDS011;11490;42.726;23.268;2023-09-19T10:22:42;6.88;;;3.55;;
22646;SDS011;11490;42.726;23.268;2023-09-19T10:25:12;5.13;;;3.45;;
22646;SDS011;11490;42.726;23.268;2023-09-19T10:27:37;7.68;;;3.42;;
22646;SDS011;11490;42.726;23.268;2023-09-19T10:30:08;6.00;;;3.42;;
22646;SDS011;11490;42.726;23.268;2023-09-19T10:32:39;7.93;;;3.70;;
22646;SDS011;11490;42.726;23.268;2023-09-19T10:35:06;6.47;;;4.00;;
22646;SDS011;11490;42.726;23.268;2023-09-19T10:37:33;6.60;;;3.17;;
22646;SDS011;11490;42.726;23.268;2023-09-19T10:40:00;5.07;;;3.33;;
22646;SDS011;11490;42.726;23.268;2023-09-19T10:42:25;5.63;;;3.63;;
22646;SDS011;11490;42.726;23.268;2023-09-19T10:44:57;6.75;;;3.60;;
22646;SDS011;11490;42.726;23.268;2023-09-19T10:47:25;6.35;;;2.88;;
22646;SDS011;11490;42.726;23.268;2023-09-19T10:49:51;7.20;;;3.47;;
22646;SDS011;11490;42.726;23.268;2023-09-19T10:52:17;4.80;;;3.15;;
22646;SDS011;11490;42.726;23.268;2023-09-19T10:54:56;5.47;;;3.50;;
22646;SDS011;11490;42.726;23.268;2023-09-19T10:57:24;6.63;;;3.03;;
22646;SDS011;11490;42.726;23.268;2023-09-19T11:03:15;6.20;;;3.72;;
22646;SDS011;11490;42.726;23.268;2023-09-19T11:05:34;7.38;;;3.60;;
22646;SDS011;11490;42.726;23.268;2023-09-19T11:08:00;6.35;;;3.33;;
22646;SDS011;11490;42.726;23.268;2023-09-19T11:10:48;17.83;;;3.50;;
22646;SDS011;11490;42.726;23.268;2023-09-19T11:16:03;6.28;;;3.83;;
22646;SDS011;11490;42.726;23.268;2023-09-19T11:19:03;5.20;;;3.83;;
22646;SDS011;11490;42.726;23.268;2023-09-19T11:26:47;4.82;;;3.25;;
22646;SDS011;11490;42.726;23.268;2023-09-19T11:29:24;4.93;;;3.33;;
22646;SDS011;11490;42.726;23.268;2023-09-19T11:39:39;5.82;;;3.40;;
22646;SDS011;11490;42.726;23.268;2023-09-19T11:48:12;7.18;;;3.40;;
22646;SDS011;11490;42.726;23.268;2023-09-19T11:50:43;6.05;;;3.78;;
22646;SDS011;11490;42.726;23.268;2023-09-19T11:53:11;5.22;;;3.10;;
22646;SDS011;11490;42.726;23.268;2023-09-19T11:55:40;6.90;;;3.47;;
22646;SDS011;11490;42.726;23.268;2023-09-19T11:58:09;5.32;;;3.38;;
22646;SDS011;11490;42.726;23.268;2023-09-19T12:00:40;4.78;;;3.30;;
22646;SDS011;11490;42.726;23.268;2023-09-19T12:03:25;4.75;;;3.08;;
22646;SDS011;11490;42.726;23.268;2023-09-19T12:05:55;7.00;;;3.55;;
22646;SDS011;11490;42.726;23.268;2023-09-19T12:08:22;5.38;;;3.33;;
22646;SDS011;11490;42.726;23.268;2023-09-19T12:10:48;4.55;;;2.83;;
22646;SDS011;11490;42.726;23.268;2023-09-19T12:13:19;4.50;;;2.90;;
22646;SDS011;11490;42.726;23.268;2023-09-19T12:15:46;6.68;;;3.67;;
22646;SDS011;11490;42.726;23.268;2023-09-19T12:18:29;5.35;;;3.60;;
22646;SDS011;11490;42.726;23.268;2023-09-19T12:20:56;10.70;;;4.05;;
22646;SDS011;11490;42.726;23.268;2023-09-19T12:23:37;6.18;;;3.78;;
22646;SDS011;11490;42.726;23.268;2023-09-19T12:26:19;6.28;;;3.53;;
22646;SDS011;11490;42.726;23.268;2023-09-19T12:28:45;5.03;;;3.05;;
22646;SDS011;11490;42.726;23.268;2023-09-19T12:31:12;6.68;;;3.65;;
22646;SDS011;11490;42.726;23.268;2023-09-19T12:34:27;8.02;;;4.05;;
22646;SDS011;11490;42.726;23.268;2023-09-19T12:37:16;9.55;;;3.15;;
22646;SDS011;11490;42.726;23.268;2023-09-19T12:40:07;5.45;;;3.60;;
22646;SDS011;11490;42.726;23.268;2023-09-19T12:42:48;6.18;;;3.90;;
22646;SDS011;11490;42.726;23.268;2023-09-19T12:45:18;12.02;;;3.35;;
22646;SDS011;11490;42.726;23.268;2023-09-19T12:53:35;6.60;;;3.22;;
22646;SDS011;11490;42.726;23.268;2023-09-19T12:56:14;6.20;;;4.13;;
22646;SDS011;11490;42.726;23.268;2023-09-19T12:58:57;9.80;;;3.85;;
22646;SDS011;11490;42.726;23.268;2023-09-19T13:01:37;5.13;;;3.55;;
22646;SDS011;11490;42.726;23.268;2023-09-19T13:07:02;7.00;;;3.78;;
22646;SDS011;11490;42.726;23.268;2023-09-19T13:10:05;6.97;;;3.45;;
22646;SDS011;11490;42.726;23.268;2023-09-19T13:12:36;5.25;;;3.38;;
22646;SDS011;11490;42.726;23.268;2023-09-19T13:15:25;5.05;;;3.67;;
22646;SDS011;11490;42.726;23.268;2023-09-19T13:18:25;7.82;;;3.72;;
22646;SDS011;11490;42.726;23.268;2023-09-19T13:24:17;6.93;;;3.55;;
22646;SDS011;11490;42.726;23.268;2023-09-19T13:26:48;4.95;;;3.35;;
22646;SDS011;11490;42.726;23.268;2023-09-19T13:29:14;6.30;;;3.28;;
22646;SDS011;11490;42.726;23.268;2023-09-19T13:31:45;6.60;;;3.38;;
22646;SDS011;11490;42.726;23.268;2023-09-19T13:34:32;6.10;;;3.40;;
22646;SDS011;11490;42.726;23.268;2023-09-19T13:37:13;7.40;;;4.03;;
22646;SDS011;11490;42.726;23.268;2023-09-19T13:39:41;4.43;;;3.17;;
22646;SDS011;11490;42.726;23.268;2023-09-19T13:45:09;6.75;;;5.03;;
22646;SDS011;11490;42.726;23.268;2023-09-19T13:47:37;5.43;;;3.88;;
22646;SDS011;11490;42.726;23.268;2023-09-19T13:50:03;6.50;;;4.32;;
22646;SDS011;11490;42.726;23.268;2023-09-19T13:52:32;6.25;;;3.70;;
22646;SDS011;11490;42.726;23.268;2023-09-19T13:54:58;7.43;;;4.45;;
22646;SDS011;11490;42.726;23.268;2023-09-19T13:57:26;6.90;;;4.07;;
22646;SDS011;11490;42.726;23.268;2023-09-19T13:59:52;14.55;;;8.30;;
22646;SDS011;11490;42.726;23.268;2023-09-19T14:02:21;14.32;;;8.43;;
22646;SDS011;11490;42.726;23.268;2023-09-19T14:04:50;9.50;;;5.75;;
22646;SDS011;11490;42.726;23.268;2023-09-19T14:07:17;6.15;;;4.25;;
22646;SDS011;11490;42.726;23.268;2023-09-19T14:09:43;7.25;;;3.63;;
22646;SDS011;11490;42.726;23.268;2023-09-19T14:12:09;5.68;;;4.13;;
22646;SDS011;11490;42.726;23.268;2023-09-19T14:14:34;7.15;;;4.30;;
22646;SDS011;11490;42.726;23.268;2023-09-19T14:17:00;5.45;;;3.60;;
22646;SDS011;11490;42.726;23.268;2023-09-19T14:19:26;6.03;;;3.92;;
22646;SDS011;11490;42.726;23.268;2023-09-19T14:21:52;5.45;;;3.72;;
22646;SDS011;11490;42.726;23.268;2023-09-19T14:24:20;6.07;;;3.30;;
22646;SDS011;11490;42.726;23.268;2023-09-19T14:26:46;5.57;;;3.78;;
22646;SDS011;11490;42.726;23.268;2023-09-19T14:29:11;5.97;;;3.80;;
22646;SDS011;11490;42.726;23.268;2023-09-19T14:31:38;7.55;;;3.67;;
22646;SDS011;11490;42.726;23.268;2023-09-19T14:34:05;5.57;;;3.92;;
22646;SDS011;11490;42.726;23.268;2023-09-19T14:36:31;6.05;;;3.67;;
22646;SDS011;11490;42.726;23.268;2023-09-19T14:38:57;7.97;;;4.43;;
22646;SDS011;11490;42.726;23.268;2023-09-19T14:41:23;4.85;;;3.30;;
22646;SDS011;11490;42.726;23.268;2023-09-19T14:43:50;7.55;;;3.55;;
22646;SDS011;11490;42.726;23.268;2023-09-19T14:46:16;5.95;;;3.65;;
22646;SDS011;11490;42.726;23.268;2023-09-19T14:48:44;6.10;;;3.85;;
22646;SDS011;11490;42.726;23.268;2023-09-19T14:51:12;6.10;;;4.15;;
22646;SDS011;11490;42.726;23.268;2023-09-19T14:53:38;5.07;;;3.50;;
22646;SDS011;11490;42.726;23.268;2023-09-19T14:56:04;6.57;;;3.85;;
22646;SDS011;11490;42.726;23.268;2023-09-19T14:58:33;6.80;;;3.47;;
22646;SDS011;11490;42.726;23.268;2023-09-19T15:01:17;4.82;;;3.33;;
22646;SDS011;11490;42.726;23.268;2023-09-19T15:03:42;9.35;;;3.92;;
22646;SDS011;11490;42.726;23.268;2023-09-19T15:06:08;8.85;;;4.20;;
22646;SDS011;11490;42.726;23.268;2023-09-19T15:08:36;5.28;;;3.50;;
22646;SDS011;11490;42.726;23.268;2023-09-19T15:11:06;6.35;;;3.88;;
22646;SDS011;11490;42.726;23.268;2023-09-19T15:13:35;7.78;;;4.65;;
22646;SDS011;11490;42.726;23.268;2023-09-19T15:16:01;7.10;;;3.38;;
22646;SDS011;11490;42.726;23.268;2023-09-19T15:18:28;5.35;;;3.65;;
22646;SDS011;11490;42.726;23.268;2023-09-19T15:21:01;7.28;;;3.80;;
22646;SDS011;11490;42.726;23.268;2023-09-19T15:23:28;7.50;;;3.70;;
22646;SDS011;11490;42.726;23.268;2023-09-19T15:25:56;5.60;;;3.85;;
22646;SDS011;11490;42.726;23.268;2023-09-19T15:28:22;4.57;;;3.55;;
22646;SDS011;11490;42.726;23.268;2023-09-19T15:30:48;5.45;;;3.83;;
22646;SDS011;11490;42.726;23.268;2023-09-19T15:33:14;9.57;;;3.78;;
22646;SDS011;11490;42.726;23.268;2023-09-19T15:35:40;7.20;;;3.65;;
22646;SDS011;11490;42.726;23.268;2023-09-19T15:38:05;8.00;;;4.57;;
22646;SDS011;11490;42.726;23.268;2023-09-19T15:40:32;13.88;;;7.57;;
22646;SDS011;11490;42.726;23.268;2023-09-19T15:42:58;12.60;;;6.80;;
22646;SDS011;11490;42.726;23.268;2023-09-19T15:45:25;10.85;;;5.78;;
22646;SDS011;11490;42.726;23.268;2023-09-19T15:47:51;10.60;;;4.20;;
22646;SDS011;11490;42.726;23.268;2023-09-19T15:50:16;8.82;;;4.43;;
22646;SDS011;11490;42.726;23.268;2023-09-19T15:52:42;8.73;;;4.07;;